Terminal Aerodrome Forecast
Issued by NWS Central Illinois

Home | Current Version | Previous Version | Text Only | Print | Product List | Glossary On
Versions: 1 2 3 4 5 6 7 8 9 10 11 12 13 14 15 16 17 18 19 20 21 22 23 24 25 26 27 28
772
FTUS43 KILX 250529
TAFPIA
TAF
KPIA 250529Z 2506/2606 29012G22KT P6SM VCSH OVC015
     FM251000 30016G26KT P6SM OVC020
     FM251300 31015G26KT P6SM OVC040
     FM251900 29013G22KT P6SM SCT120
     FM252300 29009KT P6SM SCT200=

USA.gov is the U.S. government's official web portal to all federal, state and local government web resources and services.